sensor_id;sensor_type;location;lat;lon;timestamp;P1;durP1;ratioP1;P2;durP2;ratioP2
44774;SDS011;31340;51.402;0.016;2022-08-01T00:01:13;4.82;;;3.38;;
44774;SDS011;31340;51.402;0.016;2022-08-01T00:03:41;6.28;;;4.10;;
44774;SDS011;31340;51.402;0.016;2022-08-01T00:06:09;5.13;;;3.90;;
44774;SDS011;31340;51.402;0.016;2022-08-01T00:08:36;4.60;;;2.88;;
44774;SDS011;31340;51.402;0.016;2022-08-01T00:11:04;5.82;;;3.00;;
44774;SDS011;31340;51.402;0.016;2022-08-01T00:13:32;4.72;;;2.95;;
44774;SDS011;31340;51.402;0.016;2022-08-01T00:16:00;5.45;;;2.92;;
44774;SDS011;31340;51.402;0.016;2022-08-01T00:18:28;4.30;;;2.63;;
44774;SDS011;31340;51.402;0.016;2022-08-01T00:20:55;3.35;;;2.67;;
44774;SDS011;31340;51.402;0.016;2022-08-01T00:23:23;4.15;;;2.75;;
44774;SDS011;31340;51.402;0.016;2022-08-01T00:25:51;4.13;;;3.10;;
44774;SDS011;31340;51.402;0.016;2022-08-01T00:28:18;5.32;;;2.63;;
44774;SDS011;31340;51.402;0.016;2022-08-01T00:30:47;4.60;;;3.17;;
44774;SDS011;31340;51.402;0.016;2022-08-01T00:33:15;3.45;;;2.78;;
44774;SDS011;31340;51.402;0.016;2022-08-01T00:35:43;5.03;;;3.22;;
44774;SDS011;31340;51.402;0.016;2022-08-01T00:38:11;3.20;;;2.45;;
44774;SDS011;31340;51.402;0.016;2022-08-01T00:40:39;3.72;;;2.45;;
44774;SDS011;31340;51.402;0.016;2022-08-01T00:43:06;3.42;;;2.85;;
44774;SDS011;31340;51.402;0.016;2022-08-01T00:45:34;4.45;;;2.53;;
44774;SDS011;31340;51.402;0.016;2022-08-01T00:48:02;2.60;;;2.20;;
44774;SDS011;31340;51.402;0.016;2022-08-01T00:50:30;7.95;;;2.92;;
44774;SDS011;31340;51.402;0.016;2022-08-01T00:52:58;6.95;;;3.22;;
44774;SDS011;31340;51.402;0.016;2022-08-01T00:55:27;3.78;;;2.63;;
44774;SDS011;31340;51.402;0.016;2022-08-01T00:57:56;3.95;;;2.30;;
44774;SDS011;31340;51.402;0.016;2022-08-01T01:00:32;2.53;;;2.25;;
44774;SDS011;31340;51.402;0.016;2022-08-01T01:03:19;5.40;;;2.67;;
44774;SDS011;31340;51.402;0.016;2022-08-01T01:14:35;8.95;;;3.15;;
44774;SDS011;31340;51.402;0.016;2022-08-01T01:17:11;5.85;;;3.67;;
44774;SDS011;31340;51.402;0.016;2022-08-01T01:19:57;3.70;;;2.97;;
44774;SDS011;31340;51.402;0.016;2022-08-01T01:30:57;7.18;;;3.15;;
44774;SDS011;31340;51.402;0.016;2022-08-01T01:33:26;5.40;;;2.83;;
44774;SDS011;31340;51.402;0.016;2022-08-01T01:35:59;5.13;;;2.75;;
44774;SDS011;31340;51.402;0.016;2022-08-01T01:38:38;5.93;;;2.80;;
44774;SDS011;31340;51.402;0.016;2022-08-01T01:41:09;4.93;;;2.35;;
44774;SDS011;31340;51.402;0.016;2022-08-01T01:46:08;3.88;;;2.13;;
44774;SDS011;31340;51.402;0.016;2022-08-01T01:48:39;4.05;;;2.33;;
44774;SDS011;31340;51.402;0.016;2022-08-01T01:51:10;3.72;;;2.50;;
44774;SDS011;31340;51.402;0.016;2022-08-01T01:53:40;3.00;;;2.42;;
44774;SDS011;31340;51.402;0.016;2022-08-01T01:56:09;5.03;;;2.60;;
44774;SDS011;31340;51.402;0.016;2022-08-01T01:58:38;3.20;;;2.10;;
44774;SDS011;31340;51.402;0.016;2022-08-01T02:01:07;7.10;;;2.45;;
44774;SDS011;31340;51.402;0.016;2022-08-01T02:03:42;4.72;;;2.15;;
44774;SDS011;31340;51.402;0.016;2022-08-01T02:06:11;5.95;;;2.70;;
44774;SDS011;31340;51.402;0.016;2022-08-01T02:08:40;4.07;;;2.20;;
44774;SDS011;31340;51.402;0.016;2022-08-01T02:11:10;3.97;;;2.90;;
44774;SDS011;31340;51.402;0.016;2022-08-01T02:13:59;5.13;;;2.78;;
44774;SDS011;31340;51.402;0.016;2022-08-01T02:16:34;2.78;;;2.20;;
44774;SDS011;31340;51.402;0.016;2022-08-01T02:19:04;6.30;;;2.67;;
44774;SDS011;31340;51.402;0.016;2022-08-01T02:21:37;4.60;;;2.50;;
44774;SDS011;31340;51.402;0.016;2022-08-01T02:26:43;3.20;;;2.45;;
44774;SDS011;31340;51.402;0.016;2022-08-01T02:29:15;6.15;;;2.92;;
44774;SDS011;31340;51.402;0.016;2022-08-01T02:31:48;3.17;;;2.20;;
44774;SDS011;31340;51.402;0.016;2022-08-01T02:34:17;4.82;;;2.50;;
44774;SDS011;31340;51.402;0.016;2022-08-01T02:36:46;6.47;;;2.75;;
44774;SDS011;31340;51.402;0.016;2022-08-01T02:39:17;7.18;;;2.50;;
44774;SDS011;31340;51.402;0.016;2022-08-01T02:41:50;4.93;;;2.47;;
44774;SDS011;31340;51.402;0.016;2022-08-01T02:44:30;2.97;;;2.63;;
44774;SDS011;31340;51.402;0.016;2022-08-01T02:47:01;4.20;;;2.90;;
44774;SDS011;31340;51.402;0.016;2022-08-01T02:49:33;4.97;;;2.58;;
44774;SDS011;31340;51.402;0.016;2022-08-01T02:52:10;6.22;;;2.60;;
44774;SDS011;31340;51.402;0.016;2022-08-01T02:54:40;6.10;;;2.70;;
44774;SDS011;31340;51.402;0.016;2022-08-01T02:57:10;6.40;;;2.73;;
44774;SDS011;31340;51.402;0.016;2022-08-01T02:59:41;4.72;;;2.50;;
44774;SDS011;31340;51.402;0.016;2022-08-01T03:02:10;3.60;;;2.45;;
44774;SDS011;31340;51.402;0.016;2022-08-01T03:04:39;4.68;;;2.53;;
44774;SDS011;31340;51.402;0.016;2022-08-01T03:07:09;6.18;;;2.80;;
44774;SDS011;31340;51.402;0.016;2022-08-01T03:09:42;3.30;;;2.40;;
44774;SDS011;31340;51.402;0.016;2022-08-01T03:12:15;5.57;;;2.30;;
44774;SDS011;31340;51.402;0.016;2022-08-01T03:14:47;3.92;;;2.75;;
44774;SDS011;31340;51.402;0.016;2022-08-01T03:17:18;5.20;;;2.63;;
44774;SDS011;31340;51.402;0.016;2022-08-01T03:19:51;5.93;;;2.90;;
44774;SDS011;31340;51.402;0.016;2022-08-01T03:22:21;6.35;;;2.70;;
44774;SDS011;31340;51.402;0.016;2022-08-01T03:24:52;4.38;;;2.70;;
44774;SDS011;31340;51.402;0.016;2022-08-01T03:27:21;4.85;;;2.58;;
44774;SDS011;31340;51.402;0.016;2022-08-01T03:29:51;4.80;;;2.57;;
44774;SDS011;31340;51.402;0.016;2022-08-01T03:32:21;8.07;;;3.53;;
44774;SDS011;31340;51.402;0.016;2022-08-01T03:34:50;5.78;;;2.80;;
44774;SDS011;31340;51.402;0.016;2022-08-01T03:37:23;3.90;;;3.05;;
44774;SDS011;31340;51.402;0.016;2022-08-01T03:42:39;4.28;;;3.08;;
44774;SDS011;31340;51.402;0.016;2022-08-01T03:45:16;5.50;;;3.00;;
44774;SDS011;31340;51.402;0.016;2022-08-01T03:47:48;4.07;;;2.80;;
44774;SDS011;31340;51.402;0.016;2022-08-01T03:50:20;4.53;;;3.50;;
44774;SDS011;31340;51.402;0.016;2022-08-01T03:52:49;3.70;;;2.83;;
44774;SDS011;31340;51.402;0.016;2022-08-01T03:55:18;5.32;;;3.20;;
44774;SDS011;31340;51.402;0.016;2022-08-01T03:57:48;3.83;;;2.80;;
44774;SDS011;31340;51.402;0.016;2022-08-01T04:00:17;3.97;;;2.78;;
44774;SDS011;31340;51.402;0.016;2022-08-01T04:02:48;5.57;;;2.97;;
44774;SDS011;31340;51.402;0.016;2022-08-01T04:05:17;6.10;;;3.50;;
44774;SDS011;31340;51.402;0.016;2022-08-01T04:07:47;4.65;;;3.35;;
44774;SDS011;31340;51.402;0.016;2022-08-01T04:10:23;5.57;;;3.58;;
44774;SDS011;31340;51.402;0.016;2022-08-01T04:12:51;5.40;;;3.20;;
44774;SDS011;31340;51.402;0.016;2022-08-01T04:15:18;9.05;;;3.55;;
44774;SDS011;31340;51.402;0.016;2022-08-01T04:17:50;6.47;;;3.28;;
44774;SDS011;31340;51.402;0.016;2022-08-01T04:20:21;6.35;;;3.53;;
44774;SDS011;31340;51.402;0.016;2022-08-01T04:22:49;6.00;;;3.58;;
44774;SDS011;31340;51.402;0.016;2022-08-01T04:25:21;5.30;;;3.90;;
44774;SDS011;31340;51.402;0.016;2022-08-01T04:27:56;5.32;;;3.72;;
44774;SDS011;31340;51.402;0.016;2022-08-01T04:30:27;6.32;;;4.22;;
44774;SDS011;31340;51.402;0.016;2022-08-01T04:35:26;7.45;;;3.65;;
44774;SDS011;31340;51.402;0.016;2022-08-01T04:38:15;7.43;;;3.67;;
44774;SDS011;31340;51.402;0.016;2022-08-01T04:40:50;5.88;;;3.85;;
44774;SDS011;31340;51.402;0.016;2022-08-01T04:43:19;9.52;;;3.97;;
44774;SDS011;31340;51.402;0.016;2022-08-01T04:45:47;6.50;;;3.65;;
44774;SDS011;31340;51.402;0.016;2022-08-01T04:48:19;6.10;;;3.83;;
44774;SDS011;31340;51.402;0.016;2022-08-01T04:50:49;9.20;;;4.57;;
44774;SDS011;31340;51.402;0.016;2022-08-01T04:53:19;7.07;;;3.88;;
44774;SDS011;31340;51.402;0.016;2022-08-01T04:55:49;5.53;;;3.83;;
44774;SDS011;31340;51.402;0.016;2022-08-01T04:58:17;4.85;;;3.60;;
44774;SDS011;31340;51.402;0.016;2022-08-01T05:00:45;8.63;;;4.13;;
44774;SDS011;31340;51.402;0.016;2022-08-01T05:03:14;5.57;;;4.05;;
44774;SDS011;31340;51.402;0.016;2022-08-01T05:05:42;7.80;;;4.65;;
44774;SDS011;31340;51.402;0.016;2022-08-01T05:08:10;6.93;;;4.43;;
44774;SDS011;31340;51.402;0.016;2022-08-01T05:10:38;9.25;;;4.88;;
44774;SDS011;31340;51.402;0.016;2022-08-01T05:13:06;7.38;;;4.30;;
44774;SDS011;31340;51.402;0.016;2022-08-01T05:15:36;8.00;;;4.22;;
44774;SDS011;31340;51.402;0.016;2022-08-01T05:18:04;9.18;;;4.63;;
44774;SDS011;31340;51.402;0.016;2022-08-01T05:20:34;7.55;;;4.32;;
44774;SDS011;31340;51.402;0.016;2022-08-01T05:23:03;7.22;;;4.63;;
44774;SDS011;31340;51.402;0.016;2022-08-01T05:25:32;6.72;;;4.10;;
44774;SDS011;31340;51.402;0.016;2022-08-01T05:28:20;6.80;;;4.93;;
44774;SDS011;31340;51.402;0.016;2022-08-01T05:30:47;7.30;;;4.75;;
44774;SDS011;31340;51.402;0.016;2022-08-01T05:33:15;7.78;;;4.80;;
44774;SDS011;31340;51.402;0.016;2022-08-01T05:35:43;8.40;;;4.30;;
44774;SDS011;31340;51.402;0.016;2022-08-01T05:38:15;7.30;;;4.80;;
44774;SDS011;31340;51.402;0.016;2022-08-01T05:40:43;4.38;;;3.50;;
44774;SDS011;31340;51.402;0.016;2022-08-01T05:43:10;6.13;;;4.35;;
44774;SDS011;31340;51.402;0.016;2022-08-01T05:45:38;8.43;;;4.13;;
44774;SDS011;31340;51.402;0.016;2022-08-01T05:48:06;7.70;;;3.85;;
44774;SDS011;31340;51.402;0.016;2022-08-01T05:50:33;7.45;;;4.07;;
44774;SDS011;31340;51.402;0.016;2022-08-01T05:53:01;8.00;;;3.80;;
44774;SDS011;31340;51.402;0.016;2022-08-01T05:55:29;7.85;;;4.40;;
44774;SDS011;31340;51.402;0.016;2022-08-01T05:57:56;8.10;;;4.85;;
44774;SDS011;31340;51.402;0.016;2022-08-01T06:00:24;8.45;;;3.95;;
44774;SDS011;31340;51.402;0.016;2022-08-01T06:02:52;6.10;;;4.18;;
44774;SDS011;31340;51.402;0.016;2022-08-01T06:05:20;8.55;;;4.25;;
44774;SDS011;31340;51.402;0.016;2022-08-01T06:07:47;6.28;;;4.50;;
44774;SDS011;31340;51.402;0.016;2022-08-01T06:10:15;6.00;;;3.97;;
44774;SDS011;31340;51.402;0.016;2022-08-01T06:12:43;5.57;;;4.10;;
44774;SDS011;31340;51.402;0.016;2022-08-01T06:15:11;9.90;;;4.75;;
44774;SDS011;31340;51.402;0.016;2022-08-01T06:17:38;7.45;;;4.18;;
44774;SDS011;31340;51.402;0.016;2022-08-01T06:20:07;5.60;;;4.10;;
44774;SDS011;31340;51.402;0.016;2022-08-01T06:22:35;9.73;;;5.00;;
44774;SDS011;31340;51.402;0.016;2022-08-01T06:25:04;7.32;;;4.28;;
44774;SDS011;31340;51.402;0.016;2022-08-01T06:27:33;6.65;;;4.75;;
44774;SDS011;31340;51.402;0.016;2022-08-01T06:30:02;6.17;;;3.87;;
44774;SDS011;31340;51.402;0.016;2022-08-01T06:32:31;7.25;;;4.05;;
44774;SDS011;31340;51.402;0.016;2022-08-01T06:34:59;7.15;;;3.80;;
44774;SDS011;31340;51.402;0.016;2022-08-01T06:37:31;6.70;;;4.28;;
44774;SDS011;31340;51.402;0.016;2022-08-01T06:40:06;6.68;;;3.88;;
44774;SDS011;31340;51.402;0.016;2022-08-01T06:42:44;4.95;;;3.28;;
44774;SDS011;31340;51.402;0.016;2022-08-01T06:45:13;10.18;;;4.60;;
44774;SDS011;31340;51.402;0.016;2022-08-01T06:47:42;10.30;;;3.80;;
44774;SDS011;31340;51.402;0.016;2022-08-01T06:50:16;6.13;;;4.03;;
44774;SDS011;31340;51.402;0.016;2022-08-01T06:52:45;7.15;;;3.22;;
44774;SDS011;31340;51.402;0.016;2022-08-01T06:55:12;8.23;;;4.07;;
44774;SDS011;31340;51.402;0.016;2022-08-01T06:57:47;4.82;;;3.60;;
44774;SDS011;31340;51.402;0.016;2022-08-01T07:00:20;5.53;;;3.60;;
44774;SDS011;31340;51.402;0.016;2022-08-01T07:02:52;6.25;;;3.42;;
44774;SDS011;31340;51.402;0.016;2022-08-01T07:05:22;9.48;;;4.22;;
44774;SDS011;31340;51.402;0.016;2022-08-01T07:07:50;6.22;;;3.85;;
44774;SDS011;31340;51.402;0.016;2022-08-01T07:10:17;7.78;;;3.42;;
44774;SDS011;31340;51.402;0.016;2022-08-01T07:12:45;5.57;;;3.53;;
44774;SDS011;31340;51.402;0.016;2022-08-01T07:15:13;9.48;;;3.97;;
44774;SDS011;31340;51.402;0.016;2022-08-01T07:17:41;7.72;;;4.00;;
44774;SDS011;31340;51.402;0.016;2022-08-01T07:20:11;6.40;;;4.43;;
44774;SDS011;31340;51.402;0.016;2022-08-01T07:22:42;4.15;;;3.40;;
44774;SDS011;31340;51.402;0.016;2022-08-01T07:25:15;6.28;;;3.63;;
44774;SDS011;31340;51.402;0.016;2022-08-01T07:27:43;5.68;;;3.53;;
44774;SDS011;31340;51.402;0.016;2022-08-01T07:30:12;7.50;;;4.20;;
44774;SDS011;31340;51.402;0.016;2022-08-01T07:32:41;6.72;;;3.42;;
44774;SDS011;31340;51.402;0.016;2022-08-01T07:35:09;6.10;;;3.78;;
44774;SDS011;31340;51.402;0.016;2022-08-01T07:37:37;6.78;;;4.70;;
44774;SDS011;31340;51.402;0.016;2022-08-01T07:40:16;7.55;;;4.18;;
44774;SDS011;31340;51.402;0.016;2022-08-01T07:42:45;9.30;;;3.70;;
44774;SDS011;31340;51.402;0.016;2022-08-01T07:45:14;6.35;;;4.20;;
44774;SDS011;31340;51.402;0.016;2022-08-01T07:47:42;6.78;;;4.20;;
44774;SDS011;31340;51.402;0.016;2022-08-01T07:50:10;5.53;;;4.10;;
44774;SDS011;31340;51.402;0.016;2022-08-01T07:52:39;4.68;;;3.30;;
44774;SDS011;31340;51.402;0.016;2022-08-01T07:55:07;8.57;;;3.63;;
44774;SDS011;31340;51.402;0.016;2022-08-01T07:57:36;18.08;;;3.88;;
44774;SDS011;31340;51.402;0.016;2022-08-01T08:00:04;8.48;;;3.40;;
44774;SDS011;31340;51.402;0.016;2022-08-01T08:02:33;6.05;;;3.42;;
44774;SDS011;31340;51.402;0.016;2022-08-01T08:05:01;4.20;;;2.90;;
44774;SDS011;31340;51.402;0.016;2022-08-01T08:07:31;5.20;;;3.30;;
44774;SDS011;31340;51.402;0.016;2022-08-01T08:10:03;7.60;;;3.40;;
44774;SDS011;31340;51.402;0.016;2022-08-01T08:12:32;13.77;;;3.30;;
44774;SDS011;31340;51.402;0.016;2022-08-01T08:15:00;4.78;;;3.53;;
44774;SDS011;31340;51.402;0.016;2022-08-01T08:17:27;5.88;;;3.17;;
44774;SDS011;31340;51.402;0.016;2022-08-01T08:20:03;10.52;;;2.90;;
44774;SDS011;31340;51.402;0.016;2022-08-01T08:22:35;5.45;;;3.28;;
44774;SDS011;31340;51.402;0.016;2022-08-01T08:25:03;4.53;;;2.65;;
44774;SDS011;31340;51.402;0.016;2022-08-01T08:27:34;5.25;;;2.70;;
44774;SDS011;31340;51.402;0.016;2022-08-01T08:30:04;6.53;;;2.63;;
44774;SDS011;31340;51.402;0.016;2022-08-01T08:32:38;4.53;;;2.65;;
44774;SDS011;31340;51.402;0.016;2022-08-01T08:35:06;3.60;;;2.40;;
44774;SDS011;31340;51.402;0.016;2022-08-01T08:37:38;5.10;;;2.63;;
44774;SDS011;31340;51.402;0.016;2022-08-01T08:40:13;5.07;;;2.88;;
44774;SDS011;31340;51.402;0.016;2022-08-01T08:42:42;5.82;;;2.50;;
44774;SDS011;31340;51.402;0.016;2022-08-01T08:45:11;6.40;;;2.58;;
44774;SDS011;31340;51.402;0.016;2022-08-01T08:47:39;4.18;;;2.50;;
44774;SDS011;31340;51.402;0.016;2022-08-01T08:52:38;4.38;;;2.45;;
44774;SDS011;31340;51.402;0.016;2022-08-01T08:55:06;3.85;;;2.20;;
44774;SDS011;31340;51.402;0.016;2022-08-01T08:57:36;5.07;;;2.85;;
44774;SDS011;31340;51.402;0.016;2022-08-01T09:00:08;6.72;;;2.60;;
44774;SDS011;31340;51.402;0.016;2022-08-01T09:02:43;12.85;;;2.70;;
44774;SDS011;31340;51.402;0.016;2022-08-01T09:05:13;5.32;;;2.20;;
44774;SDS011;31340;51.402;0.016;2022-08-01T09:07:45;11.10;;;2.65;;
44774;SDS011;31340;51.402;0.016;2022-08-01T09:10:13;5.05;;;2.63;;
44774;SDS011;31340;51.402;0.016;2022-08-01T09:12:59;3.58;;;2.40;;
44774;SDS011;31340;51.402;0.016;2022-08-01T09:15:48;5.28;;;2.38;;
44774;SDS011;31340;51.402;0.016;2022-08-01T09:18:27;7.03;;;2.10;;
44774;SDS011;31340;51.402;0.016;2022-08-01T09:23:33;4.32;;;2.25;;
44774;SDS011;31340;51.402;0.016;2022-08-01T09:26:01;5.97;;;2.55;;
44774;SDS011;31340;51.402;0.016;2022-08-01T09:28:31;5.30;;;2.50;;
44774;SDS011;31340;51.402;0.016;2022-08-01T09:31:05;3.65;;;1.77;;
44774;SDS011;31340;51.402;0.016;2022-08-01T09:36:18;4.13;;;2.75;;
44774;SDS011;31340;51.402;0.016;2022-08-01T09:38:48;2.63;;;2.08;;
44774;SDS011;31340;51.402;0.016;2022-08-01T09:41:17;4.32;;;2.08;;
44774;SDS011;31340;51.402;0.016;2022-08-01T09:44:06;3.65;;;1.90;;
44774;SDS011;31340;51.402;0.016;2022-08-01T09:46:34;4.45;;;1.90;;
44774;SDS011;31340;51.402;0.016;2022-08-01T09:49:05;3.45;;;2.40;;
44774;SDS011;31340;51.402;0.016;2022-08-01T09:51:37;4.45;;;1.98;;
44774;SDS011;31340;51.402;0.016;2022-08-01T09:54:32;5.75;;;2.00;;
44774;SDS011;31340;51.402;0.016;2022-08-01T09:57:14;4.68;;;1.77;;
44774;SDS011;31340;51.402;0.016;2022-08-01T09:59:44;2.85;;;2.08;;
44774;SDS011;31340;51.402;0.016;2022-08-01T10:05:07;6.40;;;2.35;;
44774;SDS011;31340;51.402;0.016;2022-08-01T10:10:26;2.88;;;1.90;;
44774;SDS011;31340;51.402;0.016;2022-08-01T10:12:57;3.00;;;1.67;;
44774;SDS011;31340;51.402;0.016;2022-08-01T10:15:26;4.15;;;1.80;;
44774;SDS011;31340;51.402;0.016;2022-08-01T10:18:05;2.80;;;2.38;;
44774;SDS011;31340;51.402;0.016;2022-08-01T10:20:47;7.85;;;1.80;;
44774;SDS011;31340;51.402;0.016;2022-08-01T10:23:15;5.88;;;2.33;;
44774;SDS011;31340;51.402;0.016;2022-08-01T10:25:46;3.50;;;1.90;;
44774;SDS011;31340;51.402;0.016;2022-08-01T10:28:16;7.38;;;2.80;;
44774;SDS011;31340;51.402;0.016;2022-08-01T10:30:47;7.43;;;2.30;;
44774;SDS011;31340;51.402;0.016;2022-08-01T10:33:16;9.57;;;2.67;;
44774;SDS011;31340;51.402;0.016;2022-08-01T10:36:05;4.95;;;2.40;;
44774;SDS011;31340;51.402;0.016;2022-08-01T10:38:35;3.90;;;2.90;;
44774;SDS011;31340;51.402;0.016;2022-08-01T10:41:03;6.55;;;2.22;;
44774;SDS011;31340;51.402;0.016;2022-08-01T10:43:35;7.93;;;2.00;;
44774;SDS011;31340;51.402;0.016;2022-08-01T10:46:05;8.18;;;2.28;;
44774;SDS011;31340;51.402;0.016;2022-08-01T10:51:10;5.25;;;1.95;;
44774;SDS011;31340;51.402;0.016;2022-08-01T10:53:51;8.40;;;2.10;;
44774;SDS011;31340;51.402;0.016;2022-08-01T10:56:22;2.80;;;1.48;;
44774;SDS011;31340;51.402;0.016;2022-08-01T10:59:03;2.70;;;1.80;;
44774;SDS011;31340;51.402;0.016;2022-08-01T11:01:37;5.25;;;1.95;;
44774;SDS011;31340;51.402;0.016;2022-08-01T11:04:12;5.38;;;1.95;;
44774;SDS011;31340;51.402;0.016;2022-08-01T11:06:49;2.92;;;1.40;;
44774;SDS011;31340;51.402;0.016;2022-08-01T11:09:43;2.80;;;1.67;;
44774;SDS011;31340;51.402;0.016;2022-08-01T11:12:18;4.95;;;2.20;;
44774;SDS011;31340;51.402;0.016;2022-08-01T11:17:44;2.70;;;1.65;;
44774;SDS011;31340;51.402;0.016;2022-08-01T11:20:24;2.10;;;1.58;;
44774;SDS011;31340;51.402;0.016;2022-08-01T11:28:25;5.90;;;1.48;;
44774;SDS011;31340;51.402;0.016;2022-08-01T11:38:45;3.65;;;1.55;;
44774;SDS011;31340;51.402;0.016;2022-08-01T11:41:14;8.98;;;1.98;;
44774;SDS011;31340;51.402;0.016;2022-08-01T11:54:35;3.13;;;2.00;;
44774;SDS011;31340;51.402;0.016;2022-08-01T11:57:05;2.83;;;1.88;;
44774;SDS011;31340;51.402;0.016;2022-08-01T11:59:45;3.38;;;1.40;;
44774;SDS011;31340;51.402;0.016;2022-08-01T12:02:38;3.28;;;2.25;;
44774;SDS011;31340;51.402;0.016;2022-08-01T12:05:06;5.22;;;2.97;;
44774;SDS011;31340;51.402;0.016;2022-08-01T12:07:38;2.60;;;1.60;;
44774;SDS011;31340;51.402;0.016;2022-08-01T12:10:09;1.42;;;1.20;;
44774;SDS011;31340;51.402;0.016;2022-08-01T12:12:49;3.47;;;1.38;;
44774;SDS011;31340;51.402;0.016;2022-08-01T12:15:21;3.92;;;1.75;;
44774;SDS011;31340;51.402;0.016;2022-08-01T12:17:55;3.30;;;1.70;;
44774;SDS011;31340;51.402;0.016;2022-08-01T12:20:26;2.25;;;1.40;;
44774;SDS011;31340;51.402;0.016;2022-08-01T12:23:03;4.68;;;1.40;;
44774;SDS011;31340;51.402;0.016;2022-08-01T12:25:33;4.25;;;1.40;;
44774;SDS011;31340;51.402;0.016;2022-08-01T12:28:02;3.72;;;1.70;;
44774;SDS011;31340;51.402;0.016;2022-08-01T12:30:32;5.07;;;1.67;;
44774;SDS011;31340;51.402;0.016;2022-08-01T12:35:31;5.93;;;1.77;;
44774;SDS011;31340;51.402;0.016;2022-08-01T12:38:01;4.53;;;1.83;;
44774;SDS011;31340;51.402;0.016;2022-08-01T12:40:31;2.28;;;1.95;;
44774;SDS011;31340;51.402;0.016;2022-08-01T12:43:06;3.72;;;1.65;;
44774;SDS011;31340;51.402;0.016;2022-08-01T12:45:43;2.22;;;1.45;;
44774;SDS011;31340;51.402;0.016;2022-08-01T12:48:24;2.60;;;1.90;;
44774;SDS011;31340;51.402;0.016;2022-08-01T12:50:53;2.80;;;1.70;;
44774;SDS011;31340;51.402;0.016;2022-08-01T12:53:24;4.13;;;1.83;;
44774;SDS011;31340;51.402;0.016;2022-08-01T12:56:07;5.97;;;1.60;;
44774;SDS011;31340;51.402;0.016;2022-08-01T13:01:06;6.45;;;1.80;;
44774;SDS011;31340;51.402;0.016;2022-08-01T13:03:38;3.92;;;2.13;;
44774;SDS011;31340;51.402;0.016;2022-08-01T13:06:13;4.13;;;1.33;;
44774;SDS011;31340;51.402;0.016;2022-08-01T13:08:44;4.65;;;1.70;;
44774;SDS011;31340;51.402;0.016;2022-08-01T13:11:13;1.90;;;1.60;;
44774;SDS011;31340;51.402;0.016;2022-08-01T13:13:43;4.43;;;1.65;;
44774;SDS011;31340;51.402;0.016;2022-08-01T13:16:17;2.95;;;1.58;;
44774;SDS011;31340;51.402;0.016;2022-08-01T13:19:04;2.92;;;1.30;;
44774;SDS011;31340;51.402;0.016;2022-08-01T13:21:33;3.22;;;1.77;;
44774;SDS011;31340;51.402;0.016;2022-08-01T13:24:24;2.22;;;1.98;;
44774;SDS011;31340;51.402;0.016;2022-08-01T13:27:00;4.78;;;2.20;;
44774;SDS011;31340;51.402;0.016;2022-08-01T13:29:35;2.83;;;2.10;;
44774;SDS011;31340;51.402;0.016;2022-08-01T13:32:12;5.05;;;2.53;;
44774;SDS011;31340;51.402;0.016;2022-08-01T13:35:03;2.13;;;1.65;;
44774;SDS011;31340;51.402;0.016;2022-08-01T13:37:36;3.60;;;1.73;;
44774;SDS011;31340;51.402;0.016;2022-08-01T13:40:05;2.20;;;1.60;;
44774;SDS011;31340;51.402;0.016;2022-08-01T13:45:03;3.10;;;2.10;;
44774;SDS011;31340;51.402;0.016;2022-08-01T13:47:43;2.92;;;1.80;;
44774;SDS011;31340;51.402;0.016;2022-08-01T13:50:31;2.10;;;1.70;;
44774;SDS011;31340;51.402;0.016;2022-08-01T13:52:59;2.70;;;1.55;;
44774;SDS011;31340;51.402;0.016;2022-08-01T13:55:27;1.75;;;1.48;;
44774;SDS011;31340;51.402;0.016;2022-08-01T13:58:01;4.10;;;1.80;;
44774;SDS011;31340;51.402;0.016;2022-08-01T14:00:29;2.70;;;1.63;;
44774;SDS011;31340;51.402;0.016;2022-08-01T14:02:57;4.53;;;2.63;;
44774;SDS011;31340;51.402;0.016;2022-08-01T14:05:25;2.97;;;1.50;;
44774;SDS011;31340;51.402;0.016;2022-08-01T14:07:52;1.55;;;1.40;;
44774;SDS011;31340;51.402;0.016;2022-08-01T14:10:25;2.67;;;1.83;;
44774;SDS011;31340;51.402;0.016;2022-08-01T14:12:54;3.28;;;1.60;;
44774;SDS011;31340;51.402;0.016;2022-08-01T14:15:23;2.30;;;1.50;;
44774;SDS011;31340;51.402;0.016;2022-08-01T14:18:05;2.20;;;1.77;;
44774;SDS011;31340;51.402;0.016;2022-08-01T14:20:36;2.83;;;2.00;;
44774;SDS011;31340;51.402;0.016;2022-08-01T14:23:04;3.65;;;1.65;;
44774;SDS011;31340;51.402;0.016;2022-08-01T14:25:39;1.75;;;1.65;;
44774;SDS011;31340;51.402;0.016;2022-08-01T14:28:28;1.95;;;1.40;;
44774;SDS011;31340;51.402;0.016;2022-08-01T14:30:57;7.80;;;1.67;;
44774;SDS011;31340;51.402;0.016;2022-08-01T14:33:25;2.47;;;1.67;;
44774;SDS011;31340;51.402;0.016;2022-08-01T14:35:53;2.65;;;1.60;;
44774;SDS011;31340;51.402;0.016;2022-08-01T14:38:41;3.40;;;1.50;;
44774;SDS011;31340;51.402;0.016;2022-08-01T14:41:13;1.88;;;1.65;;
44774;SDS011;31340;51.402;0.016;2022-08-01T14:43:41;2.55;;;2.22;;
44774;SDS011;31340;51.402;0.016;2022-08-01T14:46:09;2.53;;;1.80;;
44774;SDS011;31340;51.402;0.016;2022-08-01T14:48:37;4.25;;;1.77;;
44774;SDS011;31340;51.402;0.016;2022-08-01T14:51:04;2.40;;;1.73;;
44774;SDS011;31340;51.402;0.016;2022-08-01T14:53:34;4.97;;;2.20;;
44774;SDS011;31340;51.402;0.016;2022-08-01T14:56:03;4.70;;;1.50;;
44774;SDS011;31340;51.402;0.016;2022-08-01T14:58:31;3.42;;;1.88;;
44774;SDS011;31340;51.402;0.016;2022-08-01T15:01:00;2.85;;;1.67;;
44774;SDS011;31340;51.402;0.016;2022-08-01T15:03:28;3.55;;;1.75;;
44774;SDS011;31340;51.402;0.016;2022-08-01T15:05:55;3.58;;;1.65;;
44774;SDS011;31340;51.402;0.016;2022-08-01T15:08:23;4.57;;;1.77;;
44774;SDS011;31340;51.402;0.016;2022-08-01T15:10:51;4.55;;;2.00;;
44774;SDS011;31340;51.402;0.016;2022-08-01T15:13:18;2.65;;;1.90;;
44774;SDS011;31340;51.402;0.016;2022-08-01T15:15:46;2.38;;;1.50;;
44774;SDS011;31340;51.402;0.016;2022-08-01T15:18:14;2.08;;;1.55;;
44774;SDS011;31340;51.402;0.016;2022-08-01T15:20:41;2.45;;;1.65;;
44774;SDS011;31340;51.402;0.016;2022-08-01T15:23:09;2.63;;;1.90;;
44774;SDS011;31340;51.402;0.016;2022-08-01T15:25:36;2.72;;;1.75;;
44774;SDS011;31340;51.402;0.016;2022-08-01T15:28:08;6.07;;;1.70;;
44774;SDS011;31340;51.402;0.016;2022-08-01T15:30:37;5.63;;;2.97;;
44774;SDS011;31340;51.402;0.016;2022-08-01T15:33:04;12.90;;;4.13;;
44774;SDS011;31340;51.402;0.016;2022-08-01T15:35:32;6.38;;;2.60;;
44774;SDS011;31340;51.402;0.016;2022-08-01T15:38:00;2.75;;;1.63;;
44774;SDS011;31340;51.402;0.016;2022-08-01T15:40:28;4.80;;;1.70;;
44774;SDS011;31340;51.402;0.016;2022-08-01T15:42:55;3.67;;;2.30;;
44774;SDS011;31340;51.402;0.016;2022-08-01T15:45:23;4.53;;;2.75;;
44774;SDS011;31340;51.402;0.016;2022-08-01T15:48:10;2.65;;;2.10;;
44774;SDS011;31340;51.402;0.016;2022-08-01T15:50:38;3.17;;;2.25;;
44774;SDS011;31340;51.402;0.016;2022-08-01T15:53:06;3.92;;;2.50;;
44774;SDS011;31340;51.402;0.016;2022-08-01T15:55:37;4.40;;;2.10;;
44774;SDS011;31340;51.402;0.016;2022-08-01T15:58:06;5.88;;;2.03;;
44774;SDS011;31340;51.402;0.016;2022-08-01T16:00:34;5.32;;;2.53;;
44774;SDS011;31340;51.402;0.016;2022-08-01T16:03:06;6.45;;;2.22;;
44774;SDS011;31340;51.402;0.016;2022-08-01T16:05:34;3.95;;;1.95;;
44774;SDS011;31340;51.402;0.016;2022-08-01T16:08:12;5.28;;;2.35;;
44774;SDS011;31340;51.402;0.016;2022-08-01T16:10:40;2.60;;;2.00;;
44774;SDS011;31340;51.402;0.016;2022-08-01T16:13:09;2.50;;;1.90;;
44774;SDS011;31340;51.402;0.016;2022-08-01T16:15:37;2.67;;;2.20;;
44774;SDS011;31340;51.402;0.016;2022-08-01T16:18:05;3.90;;;2.33;;
44774;SDS011;31340;51.402;0.016;2022-08-01T16:20:34;6.28;;;3.17;;
44774;SDS011;31340;51.402;0.016;2022-08-01T16:23:11;4.05;;;2.45;;
44774;SDS011;31340;51.402;0.016;2022-08-01T16:25:39;4.93;;;2.63;;
44774;SDS011;31340;51.402;0.016;2022-08-01T16:28:07;7.40;;;2.83;;
44774;SDS011;31340;51.402;0.016;2022-08-01T16:30:36;5.18;;;2.58;;